createdAt,value
2019-03-26T00:00:17.626Z,2.70
2019-03-26T00:02:48.764Z,2.77
2019-03-26T00:05:19.929Z,2.50
2019-03-26T00:07:48.435Z,2.58
2019-03-26T00:10:16.865Z,2.50
2019-03-26T00:12:45.740Z,2.22
2019-03-26T00:15:15.628Z,2.47
2019-03-26T00:17:44.093Z,2.33
2019-03-26T00:20:12.592Z,3.15
2019-03-26T00:22:44.265Z,2.95
2019-03-26T00:25:13.797Z,1.87
2019-03-26T00:27:42.212Z,2.65
2019-03-26T00:30:10.714Z,2.60
2019-03-26T00:32:39.135Z,1.82
2019-03-26T00:35:07.557Z,1.67
2019-03-26T00:37:35.984Z,1.95
2019-03-26T00:40:05.189Z,2.70
2019-03-26T00:42:33.613Z,2.25
2019-03-26T00:45:02.045Z,2.42
2019-03-26T00:47:30.478Z,1.90
2019-03-26T00:49:58.917Z,2.15
2019-03-26T00:52:27.337Z,1.85
2019-03-26T00:54:55.772Z,1.77
2019-03-26T00:57:24.198Z,1.60
2019-03-26T00:59:52.624Z,1.82
2019-03-26T01:02:21.060Z,2.42
2019-03-26T01:04:49.481Z,2.02
2019-03-26T01:07:17.929Z,1.92
2019-03-26T01:09:46.344Z,1.82
2019-03-26T01:12:14.799Z,1.67
2019-03-26T01:14:43.219Z,2.45
2019-03-26T01:17:11.644Z,1.62
2019-03-26T01:19:40.064Z,1.85
2019-03-26T01:22:09.572Z,1.90
2019-03-26T01:24:38.001Z,2.37
2019-03-26T01:27:06.433Z,1.62
2019-03-26T01:29:34.853Z,1.80
2019-03-26T01:32:04.763Z,1.70
2019-03-26T01:34:45.420Z,1.70
2019-03-26T01:37:03.327Z,1.72
2019-03-26T01:39:32.834Z,1.47
2019-03-26T01:42:01.249Z,1.82
2019-03-26T01:44:29.688Z,2.67
2019-03-26T01:46:58.113Z,2.00
2019-03-26T01:49:26.551Z,2.22
2019-03-26T01:51:54.970Z,1.42
2019-03-26T01:54:23.474Z,1.57
2019-03-26T01:56:51.897Z,1.75
2019-03-26T01:59:20.333Z,2.15
2019-03-26T02:01:48.753Z,1.47
2019-03-26T02:04:17.186Z,1.72
2019-03-26T02:06:45.682Z,1.92
2019-03-26T02:09:14.113Z,1.75
2019-03-26T02:11:42.537Z,1.67
2019-03-26T02:14:11.987Z,1.55
2019-03-26T02:16:40.447Z,1.52
2019-03-26T02:19:08.883Z,1.80
2019-03-26T02:21:37.297Z,2.37
2019-03-26T02:24:05.724Z,1.77
2019-03-26T02:26:34.161Z,2.08
2019-03-26T02:29:02.597Z,1.62
2019-03-26T02:31:31.021Z,1.77
2019-03-26T02:33:59.454Z,1.57
2019-03-26T02:36:27.883Z,1.60
2019-03-26T02:38:56.382Z,2.25
2019-03-26T02:41:24.805Z,1.60
2019-03-26T02:43:53.230Z,1.55
2019-03-26T02:46:21.662Z,2.27
2019-03-26T02:48:50.088Z,2.30
2019-03-26T02:51:18.521Z,1.30
2019-03-26T02:53:46.946Z,1.67
2019-03-26T02:56:15.376Z,2.50
2019-03-26T02:58:43.813Z,2.05
2019-03-26T03:01:12.233Z,2.05
2019-03-26T03:03:40.673Z,2.30
2019-03-26T03:06:09.504Z,1.50
2019-03-26T03:08:38.004Z,1.80
2019-03-26T03:11:06.421Z,1.62
2019-03-26T03:13:34.859Z,2.15
2019-03-26T03:16:04.449Z,1.87
2019-03-26T03:18:32.891Z,2.05
2019-03-26T03:21:01.314Z,1.57
2019-03-26T03:23:29.743Z,1.65
2019-03-26T03:25:58.167Z,1.85
2019-03-26T03:28:26.712Z,2.00
2019-03-26T03:30:55.146Z,1.82
2019-03-26T03:33:23.573Z,2.00
2019-03-26T03:35:53.190Z,1.65
2019-03-26T03:38:21.816Z,1.82
2019-03-26T03:40:50.247Z,1.90
2019-03-26T03:43:18.691Z,2.17
2019-03-26T03:45:47.673Z,1.57
2019-03-26T03:48:16.668Z,1.30
2019-03-26T03:50:45.361Z,1.45
2019-03-26T03:53:15.258Z,1.20
2019-03-26T03:55:43.757Z,1.98
2019-03-26T03:58:12.182Z,1.30
2019-03-26T04:00:40.686Z,1.77
2019-03-26T04:03:09.490Z,1.57
2019-03-26T04:05:37.985Z,1.85
2019-03-26T04:08:06.414Z,1.45
2019-03-26T04:10:34.845Z,1.55
2019-03-26T04:13:03.275Z,1.82
2019-03-26T04:15:34.922Z,1.40
2019-03-26T04:18:01.801Z,1.30
2019-03-26T04:20:30.269Z,1.50
2019-03-26T04:22:58.734Z,1.87
2019-03-26T04:25:27.155Z,1.72
2019-03-26T04:27:55.580Z,2.37
2019-03-26T04:30:27.727Z,2.05
2019-03-26T04:32:56.167Z,2.42
2019-03-26T04:35:24.600Z,1.85
2019-03-26T04:37:53.026Z,1.45
2019-03-26T04:40:21.441Z,1.80
2019-03-26T04:42:49.948Z,2.80
2019-03-26T04:45:18.379Z,1.20
2019-03-26T04:47:46.812Z,1.77
2019-03-26T04:50:15.239Z,1.62
2019-03-26T04:52:43.672Z,1.40
2019-03-26T04:55:12.102Z,1.82
2019-03-26T04:57:40.525Z,1.67
2019-03-26T05:00:10.014Z,1.55
2019-03-26T05:02:38.709Z,1.57
2019-03-26T05:05:07.215Z,1.72
2019-03-26T05:07:35.638Z,1.47
2019-03-26T05:10:05.600Z,1.95
2019-03-26T05:12:34.044Z,1.67
2019-03-26T05:15:02.527Z,1.62
2019-03-26T05:17:31.023Z,1.52
2019-03-26T05:19:59.448Z,1.70
2019-03-26T05:22:27.883Z,2.00
2019-03-26T05:24:56.301Z,2.40
2019-03-26T05:27:24.733Z,1.60
2019-03-26T05:29:53.164Z,2.20
2019-03-26T05:32:21.604Z,1.55
2019-03-26T05:34:50.017Z,2.45
2019-03-26T05:37:18.451Z,3.22
2019-03-26T05:39:46.882Z,2.22
2019-03-26T05:42:15.306Z,2.10
2019-03-26T05:44:43.720Z,2.15
2019-03-26T05:47:12.157Z,2.33
2019-03-26T05:49:40.595Z,1.70
2019-03-26T05:52:09.005Z,2.25
2019-03-26T05:54:37.433Z,1.75
2019-03-26T05:57:05.856Z,1.77
2019-03-26T05:59:34.288Z,2.22
2019-03-26T06:02:13.543Z,2.08
2019-03-26T06:04:32.851Z,2.40
2019-03-26T06:07:05.157Z,2.15
2019-03-26T06:09:31.418Z,2.10
2019-03-26T06:11:59.841Z,2.50
2019-03-26T06:14:28.290Z,2.05
2019-03-26T06:16:56.719Z,2.08
2019-03-26T06:19:25.147Z,2.33
2019-03-26T06:21:53.587Z,2.37
2019-03-26T06:24:22.035Z,2.22
2019-03-26T06:26:53.183Z,2.15
2019-03-26T06:29:23.683Z,2.17
2019-03-26T06:31:53.636Z,2.23
2019-03-26T06:34:22.958Z,2.35
2019-03-26T06:36:53.779Z,2.30
2019-03-26T06:39:28.049Z,3.15
2019-03-26T06:41:56.906Z,2.52
2019-03-26T06:44:25.332Z,1.92
2019-03-26T06:46:53.776Z,2.00
2019-03-26T06:49:27.025Z,1.90
2019-03-26T06:51:57.213Z,2.75
2019-03-26T06:54:25.653Z,2.00
2019-03-26T06:56:54.140Z,2.45
2019-03-26T06:59:22.570Z,2.35
2019-03-26T07:01:51.075Z,2.10
2019-03-26T07:04:21.004Z,3.08
2019-03-26T07:06:51.648Z,1.77
2019-03-26T07:09:21.155Z,2.10
2019-03-26T07:11:49.577Z,2.25
2019-03-26T07:14:18.013Z,2.50
2019-03-26T07:16:46.429Z,2.22
2019-03-26T07:19:14.858Z,2.75
2019-03-26T07:21:49.905Z,1.77
2019-03-26T07:24:18.316Z,2.08
2019-03-26T07:26:49.293Z,2.20
2019-03-26T07:29:26.047Z,2.55
2019-03-26T07:31:57.881Z,2.12
2019-03-26T07:39:52.057Z,2.02
2019-03-26T07:42:22.253Z,1.77
2019-03-26T07:44:54.933Z,1.62
2019-03-26T07:47:25.984Z,1.90
2019-03-26T07:49:58.451Z,2.37
2019-03-26T07:52:28.754Z,2.17
2019-03-26T07:54:57.848Z,2.05
2019-03-26T07:57:28.882Z,2.95
2019-03-26T07:59:57.379Z,2.05
2019-03-26T08:02:27.889Z,3.52
2019-03-26T08:04:56.933Z,3.37
2019-03-26T08:07:26.933Z,2.30
2019-03-26T08:09:59.404Z,2.90
2019-03-26T08:12:28.007Z,2.58
2019-03-26T08:14:56.469Z,2.47
2019-03-26T08:17:24.977Z,1.40
2019-03-26T08:22:45.327Z,2.55
2019-03-26T08:25:20.318Z,2.37
2019-03-26T08:27:48.616Z,1.75
2019-03-26T08:30:22.070Z,3.42
2019-03-26T08:32:56.908Z,2.40
2019-03-26T08:35:26.939Z,2.77
2019-03-26T08:37:55.369Z,2.95
2019-03-26T08:40:23.822Z,2.62
2019-03-26T08:42:58.275Z,1.98
2019-03-26T08:45:29.000Z,2.10
2019-03-26T08:48:00.862Z,3.50
2019-03-26T08:50:36.927Z,2.47
2019-03-26T08:53:07.616Z,2.62
2019-03-26T08:55:37.219Z,1.92
2019-03-26T08:58:05.654Z,2.50
2019-03-26T09:00:34.161Z,2.65
2019-03-26T09:03:13.010Z,2.22
2019-03-26T09:05:43.172Z,2.52
2019-03-26T09:08:24.902Z,2.80
2019-03-26T09:10:51.881Z,2.70
2019-03-26T09:13:19.248Z,2.83
2019-03-26T09:15:52.605Z,2.85
2019-03-26T09:18:22.313Z,2.92
2019-03-26T09:20:50.828Z,2.52
2019-03-26T09:23:27.838Z,2.45
2019-03-26T09:25:57.918Z,1.95
2019-03-26T09:28:28.687Z,1.82
2019-03-26T09:30:57.480Z,1.75
2019-03-26T09:33:26.408Z,2.33
2019-03-26T09:35:55.909Z,2.37
2019-03-26T09:38:38.374Z,2.25
2019-03-26T09:40:56.079Z,2.10
2019-03-26T09:43:24.509Z,2.15
2019-03-26T09:45:52.938Z,2.00
2019-03-26T09:48:22.448Z,2.55
2019-03-26T09:50:52.473Z,2.35
2019-03-26T09:53:22.446Z,2.08
2019-03-26T09:55:54.170Z,2.27
2019-03-26T09:58:23.632Z,2.85
2019-03-26T10:00:52.161Z,2.22
2019-03-26T10:03:20.579Z,1.42
2019-03-26T10:05:49.802Z,2.00
2019-03-26T10:08:18.236Z,1.98
2019-03-26T10:10:46.673Z,1.77
2019-03-26T10:13:15.084Z,2.40
2019-03-26T10:15:43.523Z,2.02
2019-03-26T10:18:11.950Z,2.17
2019-03-26T10:20:43.521Z,2.55
2019-03-26T10:23:12.535Z,2.25
2019-03-26T10:25:42.258Z,2.10
2019-03-26T10:28:12.419Z,2.47
2019-03-26T10:30:43.196Z,2.75
2019-03-26T10:33:11.624Z,2.05
2019-03-26T10:35:41.728Z,2.17
2019-03-26T10:38:14.541Z,1.98
2019-03-26T10:40:44.893Z,2.20
2019-03-26T10:43:13.329Z,1.90
2019-03-26T10:45:43.098Z,2.50
2019-03-26T10:48:12.694Z,1.60
2019-03-26T10:50:42.729Z,2.10
2019-03-26T10:53:11.168Z,2.08
2019-03-26T10:55:40.169Z,2.00
2019-03-26T10:58:08.588Z,1.92
2019-03-26T11:00:38.264Z,1.82
2019-03-26T11:03:07.448Z,1.90
2019-03-26T11:05:35.889Z,2.72
2019-03-26T11:08:05.572Z,1.65
2019-03-26T11:10:33.989Z,1.70
2019-03-26T11:13:03.902Z,1.95
2019-03-26T11:15:32.326Z,0.93
2019-03-26T11:18:00.764Z,1.95
2019-03-26T11:20:30.780Z,1.60
2019-03-26T11:23:00.709Z,2.00
2019-03-26T11:25:33.097Z,1.57
2019-03-26T11:28:07.316Z,1.75
2019-03-26T11:30:36.972Z,1.87
2019-03-26T11:33:07.407Z,2.30
2019-03-26T11:35:37.936Z,1.70
2019-03-26T11:38:08.412Z,2.98
2019-03-26T11:40:40.098Z,2.00
2019-03-26T11:43:10.458Z,1.62
2019-03-26T11:45:42.449Z,1.80
2019-03-26T11:48:11.955Z,2.65
2019-03-26T11:50:42.475Z,1.82
2019-03-26T11:53:14.605Z,4.93
2019-03-26T11:55:44.412Z,1.67
2019-03-26T11:58:14.437Z,1.42
2019-03-26T12:00:44.446Z,2.37
2019-03-26T12:03:12.869Z,1.60
2019-03-26T12:05:41.374Z,2.35
2019-03-26T12:08:09.806Z,1.77
2019-03-26T12:10:38.312Z,1.15
2019-03-26T12:13:06.730Z,2.50
2019-03-26T12:15:39.821Z,1.57
2019-03-26T12:20:37.655Z,1.10
2019-03-26T12:23:06.106Z,2.10
2019-03-26T12:25:34.601Z,2.10
2019-03-26T12:28:03.020Z,1.25
2019-03-26T12:30:34.573Z,1.55
2019-03-26T12:33:06.707Z,1.47
2019-03-26T12:35:37.484Z,1.55
2019-03-26T12:38:07.447Z,1.98
2019-03-26T12:40:40.153Z,1.75
2019-03-26T12:43:08.583Z,2.05
2019-03-26T12:45:38.706Z,1.82
2019-03-26T12:48:12.976Z,2.00
2019-03-26T12:50:41.862Z,1.40
2019-03-26T12:53:17.930Z,1.40
2019-03-26T12:55:43.471Z,1.20
2019-03-26T12:58:11.891Z,1.42
2019-03-26T13:00:40.342Z,1.92
2019-03-26T13:03:08.758Z,1.35
2019-03-26T13:05:37.501Z,1.80
2019-03-26T13:08:08.820Z,2.10
2019-03-26T13:10:37.804Z,1.50
2019-03-26T13:13:06.348Z,2.37
2019-03-26T13:15:34.842Z,2.17
2019-03-26T13:18:03.339Z,1.80
2019-03-26T13:20:31.767Z,1.80
2019-03-26T13:23:00.185Z,2.00
2019-03-26T13:25:28.612Z,1.15
2019-03-26T13:27:59.018Z,1.85
2019-03-26T13:30:27.177Z,2.20
2019-03-26T13:32:55.593Z,1.87
2019-03-26T13:35:24.025Z,1.65
2019-03-26T13:37:52.449Z,1.98
2019-03-26T13:40:27.131Z,1.70
2019-03-26T13:42:51.003Z,1.25
2019-03-26T13:45:23.412Z,1.72
2019-03-26T13:47:53.009Z,1.60
2019-03-26T13:50:21.509Z,2.65
2019-03-26T13:52:49.940Z,1.85
2019-03-26T13:55:18.369Z,1.85
2019-03-26T13:57:47.964Z,1.82
2019-03-26T14:00:19.986Z,2.52
2019-03-26T14:03:08.011Z,2.30
2019-03-26T14:05:36.462Z,2.60
2019-03-26T14:08:04.960Z,2.40
2019-03-26T14:10:40.827Z,2.12
2019-03-26T14:13:03.983Z,2.25
2019-03-26T14:15:32.409Z,2.37
2019-03-26T14:18:01.871Z,2.15
2019-03-26T14:20:30.292Z,2.15
2019-03-26T14:23:07.632Z,2.92
2019-03-26T14:25:43.555Z,2.72
2019-03-26T14:28:10.177Z,3.35
2019-03-26T14:30:40.390Z,2.30
2019-03-26T14:33:10.272Z,2.15
2019-03-26T14:35:38.702Z,1.75
2019-03-26T14:38:07.141Z,2.27
2019-03-26T14:40:54.586Z,2.90
2019-03-26T14:43:15.571Z,3.10
2019-03-26T14:45:43.993Z,2.87
2019-03-26T14:48:12.419Z,2.42
2019-03-26T14:50:41.462Z,2.85
2019-03-26T14:53:11.054Z,1.80
2019-03-26T14:55:41.204Z,2.83
2019-03-26T14:58:12.464Z,3.10
2019-03-26T15:00:41.052Z,3.50
2019-03-26T15:03:10.718Z,2.80
2019-03-26T15:05:39.159Z,2.98
2019-03-26T15:08:07.654Z,3.90
2019-03-26T15:10:38.336Z,3.00
2019-03-26T15:13:07.097Z,2.95
2019-03-26T15:15:36.691Z,3.40
2019-03-26T15:18:07.646Z,2.98
2019-03-26T15:20:36.084Z,3.70
2019-03-26T15:23:05.810Z,3.55
2019-03-26T15:25:37.214Z,3.08
2019-03-26T15:30:33.177Z,4.00
2019-03-26T15:33:02.873Z,3.22
2019-03-26T15:35:31.317Z,3.65
2019-03-26T15:37:59.737Z,3.27
2019-03-26T15:40:30.790Z,3.08
2019-03-26T15:42:59.221Z,3.42
2019-03-26T15:45:27.653Z,4.00
2019-03-26T15:47:57.406Z,2.55
2019-03-26T15:50:38.311Z,2.70
2019-03-26T15:53:06.574Z,4.33
2019-03-26T15:55:35.065Z,3.30
2019-03-26T15:58:04.746Z,3.08
2019-03-26T16:00:33.231Z,3.72
2019-03-26T16:03:09.319Z,3.62
2019-03-26T16:05:35.580Z,3.45
2019-03-26T16:08:08.543Z,3.15
2019-03-26T16:10:39.317Z,3.45
2019-03-26T16:13:07.825Z,4.10
2019-03-26T16:15:44.253Z,4.03
2019-03-26T16:18:06.411Z,4.03
2019-03-26T16:20:35.701Z,4.37
2019-03-26T16:23:04.141Z,4.40
2019-03-26T16:25:32.589Z,3.65
2019-03-26T16:28:02.185Z,3.72
2019-03-26T16:30:34.361Z,3.80
2019-03-26T16:33:03.703Z,4.17
2019-03-26T16:35:32.161Z,3.52
2019-03-26T16:38:12.486Z,3.12
2019-03-26T16:43:13.081Z,3.62
2019-03-26T16:45:49.164Z,3.95
2019-03-26T16:51:20.141Z,3.60
2019-03-26T16:53:50.135Z,3.83
2019-03-26T16:56:26.015Z,3.72
2019-03-26T16:58:59.503Z,4.25
2019-03-26T17:01:30.135Z,3.37
2019-03-26T17:04:00.578Z,3.25
2019-03-26T17:06:39.033Z,3.17
2019-03-26T17:09:19.007Z,3.87
2019-03-26T17:12:02.498Z,3.60
2019-03-26T17:14:23.481Z,5.00
2019-03-26T17:16:54.553Z,3.92
2019-03-26T17:19:26.910Z,3.92
2019-03-26T17:21:57.070Z,4.25
2019-03-26T17:24:25.495Z,5.15
2019-03-26T17:27:01.969Z,4.58
2019-03-26T17:29:41.237Z,3.58
2019-03-26T17:32:11.284Z,4.10
2019-03-26T17:34:41.325Z,4.72
2019-03-26T17:37:15.718Z,3.52
2019-03-26T17:39:44.160Z,3.87
2019-03-26T17:42:17.387Z,5.05
2019-03-26T17:44:45.043Z,4.17
2019-03-26T17:47:15.765Z,4.15
2019-03-26T17:49:44.201Z,3.27
2019-03-26T17:52:13.013Z,3.77
2019-03-26T17:54:41.457Z,3.22
2019-03-26T17:57:15.375Z,4.50
2019-03-26T17:59:43.821Z,3.98
2019-03-26T18:02:12.320Z,3.52
2019-03-26T18:04:41.192Z,4.47
2019-03-26T18:07:12.387Z,3.10
2019-03-26T18:09:41.740Z,3.35
2019-03-26T18:12:11.883Z,3.35
2019-03-26T18:14:41.878Z,3.67
2019-03-26T18:17:18.769Z,4.30
2019-03-26T18:19:51.981Z,4.75
2019-03-26T18:22:23.858Z,3.77
2019-03-26T18:24:52.560Z,3.42
2019-03-26T18:27:38.793Z,3.75
2019-03-26T18:30:25.710Z,4.67
2019-03-26T18:32:56.855Z,3.90
2019-03-26T18:35:28.690Z,5.70
2019-03-26T18:37:58.826Z,4.10
2019-03-26T18:40:30.527Z,3.58
2019-03-26T18:43:11.851Z,4.03
2019-03-26T18:45:39.298Z,4.78
2019-03-26T18:48:07.739Z,3.85
2019-03-26T18:50:39.349Z,5.50
2019-03-26T18:53:12.512Z,4.42
2019-03-26T18:55:47.599Z,5.40
2019-03-26T18:58:16.106Z,5.15
2019-03-26T19:00:44.600Z,4.35
2019-03-26T19:03:14.632Z,4.20
2019-03-26T19:05:43.074Z,4.30
2019-03-26T19:08:11.974Z,4.70
2019-03-26T19:10:40.402Z,4.05
2019-03-26T19:13:19.440Z,3.52
2019-03-26T19:15:43.082Z,5.25
2019-03-26T19:18:23.918Z,5.05
2019-03-26T19:21:01.383Z,5.22
2019-03-26T19:23:27.781Z,5.10
2019-03-26T19:25:59.622Z,5.67
2019-03-26T19:28:29.599Z,5.10
2019-03-26T19:30:59.634Z,4.62
2019-03-26T19:33:31.214Z,5.62
2019-03-26T19:36:00.772Z,5.87
2019-03-26T19:38:42.507Z,4.50
2019-03-26T19:41:16.506Z,4.60
2019-03-26T19:43:47.307Z,4.62
2019-03-26T19:46:20.388Z,6.58
2019-03-26T19:48:48.825Z,6.00
2019-03-26T19:51:21.455Z,5.20
2019-03-26T19:53:50.876Z,5.62
2019-03-26T19:56:19.291Z,6.08
2019-03-26T19:58:47.812Z,5.87
2019-03-26T20:01:16.233Z,6.03
2019-03-26T20:03:44.653Z,5.90
2019-03-26T20:06:20.353Z,5.92
2019-03-26T20:08:48.781Z,7.05
2019-03-26T20:11:19.193Z,5.58
2019-03-26T20:13:47.351Z,6.25
2019-03-26T20:16:15.863Z,8.00
2019-03-26T20:18:44.301Z,6.72
2019-03-26T20:21:15.437Z,6.28
2019-03-26T20:23:48.243Z,5.62
2019-03-26T20:26:30.077Z,6.12
2019-03-26T20:29:03.752Z,6.47
2019-03-26T20:31:39.139Z,7.20
2019-03-26T20:34:07.641Z,7.15
2019-03-26T20:36:36.060Z,6.20
2019-03-26T20:39:06.239Z,6.70
2019-03-26T20:41:37.133Z,8.05
2019-03-26T20:44:06.435Z,7.67
2019-03-26T20:46:36.528Z,7.17
2019-03-26T20:51:37.767Z,6.85
2019-03-26T20:54:06.469Z,6.97
2019-03-26T20:56:36.078Z,6.47
2019-03-26T20:59:06.280Z,6.67
2019-03-26T21:01:37.100Z,7.75
2019-03-26T21:04:05.528Z,6.97
2019-03-26T21:06:33.965Z,6.12
2019-03-26T21:09:02.394Z,7.67
2019-03-26T21:11:32.441Z,8.10
2019-03-26T21:14:00.877Z,7.25
2019-03-26T21:16:30.731Z,7.80
2019-03-26T21:18:59.241Z,7.15
2019-03-26T21:21:27.750Z,7.67
2019-03-26T21:23:56.270Z,7.30
2019-03-26T21:26:24.702Z,6.37
2019-03-26T21:28:54.239Z,7.75
2019-03-26T21:31:22.749Z,7.22
2019-03-26T21:33:51.253Z,7.00
2019-03-26T21:36:20.677Z,6.92
2019-03-26T21:38:49.113Z,6.97
2019-03-26T21:41:17.550Z,7.28
2019-03-26T21:43:47.188Z,6.95
2019-03-26T21:46:16.240Z,7.40
2019-03-26T21:48:44.680Z,6.67
2019-03-26T21:51:13.114Z,7.75
2019-03-26T21:53:41.617Z,7.05
2019-03-26T21:56:10.053Z,8.93
2019-03-26T21:58:38.496Z,7.05
2019-03-26T22:01:07.020Z,7.15
2019-03-26T22:03:36.382Z,6.78
2019-03-26T22:06:05.252Z,7.72
2019-03-26T22:08:33.682Z,7.53
2019-03-26T22:11:02.109Z,7.95
2019-03-26T22:13:30.622Z,8.13
2019-03-26T22:16:03.277Z,7.10
2019-03-26T22:18:31.704Z,7.33
2019-03-26T22:21:00.138Z,7.42
2019-03-26T22:23:28.656Z,8.90
2019-03-26T22:25:57.079Z,7.12
2019-03-26T22:28:25.513Z,7.35
2019-03-26T22:30:53.935Z,7.10
2019-03-26T22:33:22.368Z,7.12
2019-03-26T22:35:50.797Z,9.00
2019-03-26T22:38:19.238Z,7.45
2019-03-26T22:40:47.674Z,7.92
2019-03-26T22:43:16.094Z,8.18
2019-03-26T22:45:45.593Z,7.75
2019-03-26T22:48:14.027Z,9.13
2019-03-26T22:50:42.463Z,7.90
2019-03-26T22:53:10.891Z,7.67
2019-03-26T22:55:39.330Z,7.90
2019-03-26T22:58:07.765Z,7.72
2019-03-26T23:00:36.275Z,9.60
2019-03-26T23:03:06.377Z,7.80
2019-03-26T23:05:34.813Z,7.83
2019-03-26T23:08:03.305Z,8.23
2019-03-26T23:10:31.737Z,8.13
2019-03-26T23:13:01.436Z,8.75
2019-03-26T23:15:29.940Z,8.05
2019-03-26T23:17:58.368Z,8.30
2019-03-26T23:20:26.801Z,7.72
2019-03-26T23:22:55.245Z,8.95
2019-03-26T23:25:23.744Z,8.73
2019-03-26T23:27:52.180Z,8.30
2019-03-26T23:30:20.621Z,7.80
2019-03-26T23:32:49.120Z,7.83
2019-03-26T23:35:17.548Z,7.90
2019-03-26T23:37:45.988Z,7.47
2019-03-26T23:40:14.680Z,8.40
2019-03-26T23:42:43.108Z,7.28
2019-03-26T23:45:12.037Z,6.87
2019-03-26T23:47:40.447Z,6.60
2019-03-26T23:50:09.459Z,7.42
2019-03-26T23:52:37.918Z,6.65
2019-03-26T23:55:07.692Z,6.95
2019-03-26T23:57:37.502Z,6.55
